Time;durP1;ratioP1;P1;durP2;ratioP2;P2;SDS_P1;SDS_P2;PMS_P1;PMS_P2;Temp;Humidity;BMP_temperature;BMP_pressure;BME280_temperature;BME280_humidity;BME280_pressure;Samples;Min_cycle;Max_cycle;Signal;HPM_P1;HPM_P2
2022/10/23 00:03:30;;;;;;;20.07;15.50;;;17.20;99.90;;;;;;10093586;29;20330;-82
2022/10/23 00:08:32;;;;;;;18.43;14.63;;;17.10;99.90;;;;;;10077109;29;20216;-82
2022/10/23 00:13:35;;;;;;;18.83;14.97;;;17.00;99.90;;;;;;10092565;29;20253;-82
2022/10/23 00:18:38;;;;;;;24.13;16.73;;;17.00;99.90;;;;;;10092767;29;20241;-82
2022/10/23 00:23:41;;;;;;;24.67;15.87;;;17.10;99.90;;;;;;10077062;29;20761;-82
2022/10/23 00:28:45;;;;;;;19.67;15.70;;;16.90;99.90;;;;;;10092698;29;20276;-82
2022/10/23 00:33:48;;;;;;;23.87;16.83;;;17.20;99.90;;;;;;10075715;29;20667;-83
2022/10/23 00:38:51;;;;;;;24.80;16.40;;;17.10;99.90;;;;;;10061173;29;20244;-83
2022/10/23 00:44:03;;;;;;;21.67;15.33;;;16.90;99.90;;;;;;10075950;29;20241;-82
2022/10/23 00:49:08;;;;;;;21.73;15.00;;;16.80;99.90;;;;;;10075374;29;20297;-82
2022/10/23 00:54:12;;;;;;;18.90;14.50;;;16.90;99.90;;;;;;10092574;29;20265;-82
2022/10/23 00:59:32;;;;;;;38.17;23.97;;;16.80;99.90;;;;;;10076172;29;20245;-82
2022/10/23 01:04:35;;;;;;;21.03;15.40;;;16.60;99.90;;;;;;10070542;29;20927;-82
2022/10/23 01:10:00;;;;;;;24.77;17.23;;;16.40;99.90;;;;;;10092379;29;20270;-82
2022/10/23 01:15:13;;;;;;;33.23;20.13;;;16.70;99.90;;;;;;10053130;29;20338;-82
2022/10/23 01:20:31;;;;;;;20.43;14.87;;;16.50;99.90;;;;;;10074435;29;20305;-82
2022/10/23 01:25:58;;;;;;;25.60;18.23;;;16.80;99.90;;;;;;10091572;29;20771;-82
2022/10/23 01:31:05;;;;;;;16.53;13.47;;;16.70;99.90;;;;;;10074209;29;20267;-82
2022/10/23 01:36:15;;;;;;;23.93;16.63;;;17.10;99.90;;;;;;10051763;29;20288;-82
2022/10/23 01:41:58;;;;;;;25.07;16.00;;;16.90;99.90;;;;;;10074275;29;20632;-82
2022/10/23 01:47:07;;;;;;;27.37;19.17;;;16.80;99.90;;;;;;10074499;29;20277;-82
2022/10/23 01:52:22;;;;;;;22.03;15.57;;;16.70;99.90;;;;;;10073247;29;20261;-82
2022/10/23 01:57:30;;;;;;;27.53;18.93;;;16.50;99.90;;;;;;10080441;29;20829;-82
2022/10/23 02:02:36;;;;;;;22.80;16.00;;;16.40;99.90;;;;;;10082041;29;20637;-82
2022/10/23 02:07:39;;;;;;;20.00;14.13;;;16.80;99.90;;;;;;10066394;29;20288;-82
2022/10/23 02:13:20;;;;;;;18.73;14.70;;;16.80;99.90;;;;;;10080471;29;20268;-82
2022/10/23 02:18:47;;;;;;;26.97;16.90;;;16.80;99.90;;;;;;10073241;29;20272;-82
2022/10/23 02:24:09;;;;;;;19.47;14.47;;;16.50;99.90;;;;;;10058852;29;20640;-82
2022/10/23 02:29:20;;;;;;;23.70;16.67;;;16.60;99.90;;;;;;10066176;29;20240;-82
2022/10/23 02:34:23;;;;;;;16.93;13.50;;;16.60;99.90;;;;;;10079888;29;20274;-82
2022/10/23 02:39:26;;;;;;;20.60;15.97;;;16.40;99.90;;;;;;10079963;29;20300;-82
2022/10/23 02:44:48;;;;;;;18.60;14.97;;;16.70;99.90;;;;;;10065706;29;20241;-82
2022/10/23 02:49:57;;;;;;;15.57;12.93;;;16.70;99.90;;;;;;10072262;29;20655;-82
2022/10/23 02:55:02;;;;;;;20.27;15.50;;;16.80;99.90;;;;;;10079093;29;20272;-82
2022/10/23 03:00:18;;;;;;;27.53;18.20;;;16.50;99.90;;;;;;10079625;29;20231;-82
2022/10/23 03:05:30;;;;;;;16.57;14.63;;;16.60;99.90;;;;;;10096063;29;20236;-82
2022/10/23 03:10:32;;;;;;;19.10;14.33;;;16.50;99.90;;;;;;10095334;29;20701;-82
2022/10/23 03:15:35;;;;;;;18.67;14.53;;;16.50;99.90;;;;;;10078930;29;20332;-82
2022/10/23 03:20:37;;;;;;;18.80;15.63;;;16.40;99.90;;;;;;10095263;29;20247;-82
2022/10/23 03:25:40;;;;;;;26.73;18.23;;;16.70;99.90;;;;;;10072483;29;20249;-82
2022/10/23 03:30:42;;;;;;;26.17;17.23;;;16.20;99.90;;;;;;10055485;29;20209;-82
2022/10/23 03:35:46;;;;;;;26.73;17.60;;;15.40;99.90;;;;;;10077839;29;20313;-82
2022/10/23 03:40:54;;;;;;;29.33;20.03;;;15.10;99.90;;;;;;10093796;29;20235;-82
2022/10/23 03:45:56;;;;;;;18.23;13.80;;;14.90;99.90;;;;;;10063247;29;20253;-82
2022/10/23 03:51:00;;;;;;;20.77;15.87;;;14.90;99.90;;;;;;10077646;29;20697;-82
2022/10/23 03:56:03;;;;;;;18.13;14.43;;;16.00;99.90;;;;;;10092964;29;20272;-82
2022/10/23 04:01:08;;;;;;;31.07;20.33;;;16.20;99.90;;;;;;10076641;29;20317;-82
2022/10/23 04:06:11;;;;;;;17.30;13.90;;;16.10;99.90;;;;;;10076791;29;20246;-82
2022/10/23 04:11:14;;;;;;;16.00;12.07;;;16.30;99.90;;;;;;10062397;29;20241;-82
2022/10/23 04:16:20;;;;;;;18.90;14.43;;;16.70;99.90;;;;;;10051513;29;20204;-83
2022/10/23 04:21:22;;;;;;;18.17;13.70;;;16.60;99.90;;;;;;10053062;29;20241;-82
2022/10/23 04:26:25;;;;;;;22.90;16.77;;;16.50;99.90;;;;;;10068699;29;20235;-82
2022/10/23 04:31:27;;;;;;;27.50;21.03;;;16.50;99.90;;;;;;10076224;29;20265;-82
2022/10/23 04:36:30;;;;;;;19.30;14.67;;;16.60;99.90;;;;;;10076391;29;20245;-82
2022/10/23 04:41:41;;;;;;;18.63;15.13;;;16.60;99.90;;;;;;10076860;29;20204;-83
2022/10/23 04:46:44;;;;;;;17.97;13.43;;;16.80;99.90;;;;;;10075214;29;20273;-83
2022/10/23 04:51:47;;;;;;;20.67;13.60;;;16.70;99.90;;;;;;10075046;29;20266;-82
2022/10/23 04:57:07;;;;;;;25.80;17.33;;;16.40;99.90;;;;;;10091410;29;20265;-83
2022/10/23 05:02:27;;;;;;;16.77;13.83;;;16.40;99.90;;;;;;10075172;29;20242;-82
2022/10/23 05:07:30;;;;;;;17.83;14.50;;;16.50;99.90;;;;;;10074394;29;20209;-82
2022/10/23 05:12:59;;;;;;;16.33;12.70;;;16.60;99.90;;;;;;10088539;29;20257;-82
2022/10/23 05:18:11;;;;;;;16.87;13.93;;;16.60;99.90;;;;;;10084896;29;20334;-82
2022/10/23 05:23:16;;;;;;;18.57;14.93;;;16.60;99.90;;;;;;10072884;29;20244;-82
2022/10/23 05:28:29;;;;;;;20.03;15.13;;;16.70;99.90;;;;;;10093247;29;20239;-82
2022/10/23 05:33:34;;;;;;;24.97;18.63;;;16.60;99.90;;;;;;10059374;29;20231;-82
2022/10/23 05:38:37;;;;;;;19.60;14.83;;;16.10;99.90;;;;;;10059049;29;20757;-82
2022/10/23 05:43:46;;;;;;;17.17;13.20;;;16.20;99.90;;;;;;10073073;29;20687;-82
2022/10/23 05:49:12;;;;;;;26.77;19.10;;;16.40;99.90;;;;;;10075475;29;20245;-82
2022/10/23 05:54:26;;;;;;;20.00;14.60;;;16.30;99.90;;;;;;10070469;29;20932;-82
2022/10/23 05:59:49;;;;;;;14.40;11.90;;;16.40;99.90;;;;;;10060380;29;20317;-82
2022/10/23 06:05:14;;;;;;;17.80;14.37;;;16.80;99.90;;;;;;10098312;29;20696;-82
2022/10/23 06:10:16;;;;;;;16.67;13.37;;;16.90;99.90;;;;;;10064675;29;20257;-82
2022/10/23 06:15:25;;;;;;;19.30;15.00;;;16.80;99.90;;;;;;10056556;29;20285;-82
2022/10/23 06:20:36;;;;;;;24.80;17.77;;;16.80;99.90;;;;;;10056008;29;20217;-82
2022/10/23 06:25:53;;;;;;;16.60;12.30;;;16.60;99.90;;;;;;10054337;29;20326;-82
2022/10/23 06:31:08;;;;;;;19.33;13.90;;;16.70;99.90;;;;;;10050760;29;20212;-82
2022/10/23 06:36:11;;;;;;;15.77;12.90;;;16.90;99.90;;;;;;10069358;29;20647;-82
2022/10/23 06:41:19;;;;;;;16.60;12.30;;;16.90;99.90;;;;;;10062727;29;20261;-82
2022/10/23 06:46:31;;;;;;;18.50;14.80;;;16.90;99.90;;;;;;10079853;29;20640;-82
2022/10/23 06:51:52;;;;;;;18.87;15.13;;;16.90;99.90;;;;;;10068820;29;20706;-82
2022/10/23 06:56:57;;;;;;;22.57;16.60;;;16.90;99.90;;;;;;10078975;29;20270;-82
2022/10/23 07:02:10;;;;;;;18.73;14.33;;;16.90;99.90;;;;;;10078812;29;20643;-82
2022/10/23 07:07:13;;;;;;;20.43;14.90;;;16.80;99.90;;;;;;10055568;29;20732;-82
2022/10/23 07:12:22;;;;;;;16.07;12.93;;;16.90;99.90;;;;;;10060461;29;20369;-82
2022/10/23 07:17:35;;;;;;;18.53;14.07;;;17.00;99.90;;;;;;10048690;29;20237;-82
2022/10/23 07:22:37;;;;;;;22.27;16.20;;;16.90;99.90;;;;;;10075156;29;20239;-82
2022/10/23 07:27:47;;;;;;;18.90;14.73;;;16.70;99.90;;;;;;10064253;29;20245;-82
2022/10/23 07:32:50;;;;;;;19.97;15.00;;;16.90;99.90;;;;;;10093836;29;20274;-82
2022/10/23 07:38:07;;;;;;;19.63;13.53;;;17.10;99.90;;;;;;10095696;29;20678;-82
2022/10/23 07:43:17;;;;;;;18.33;13.97;;;17.00;99.90;;;;;;10046453;29;20751;-82
2022/10/23 07:48:20;;;;;;;25.03;15.93;;;17.00;99.90;;;;;;10076665;29;20243;-82
2022/10/23 07:53:33;;;;;;;18.10;13.77;;;17.20;99.90;;;;;;10092293;29;20316;-82
2022/10/23 07:58:45;;;;;;;19.53;15.13;;;17.20;99.90;;;;;;10076509;29;20240;-82
2022/10/23 08:03:51;;;;;;;21.30;14.77;;;17.10;99.90;;;;;;10076764;29;20209;-82
2022/10/23 08:08:53;;;;;;;18.60;15.70;;;17.20;99.90;;;;;;10077565;29;20640;-83
2022/10/23 08:13:57;;;;;;;21.53;14.90;;;17.10;99.90;;;;;;10061331;29;20260;-82
2022/10/23 08:19:05;;;;;;;17.20;13.90;;;17.10;99.90;;;;;;10091337;29;20237;-82
2022/10/23 08:24:13;;;;;;;16.77;13.17;;;17.20;99.90;;;;;;10062111;29;20254;-82
2022/10/23 08:29:19;;;;;;;20.33;14.43;;;17.40;99.90;;;;;;10076646;29;20712;-81
2022/10/23 08:34:23;;;;;;;20.67;13.87;;;17.50;99.90;;;;;;10092140;29;20249;-82
2022/10/23 08:39:27;;;;;;;16.97;13.20;;;17.50;99.90;;;;;;10061205;29;20300;-81
2022/10/23 08:45:05;;;;;;;18.07;14.13;;;17.50;99.90;;;;;;10071107;29;20244;-82
2022/10/23 08:50:37;;;;;;;17.50;13.27;;;17.50;99.90;;;;;;10059030;29;20261;-82
2022/10/23 08:55:49;;;;;;;19.80;14.20;;;17.50;99.90;;;;;;10052739;29;20900;-83
2022/10/23 09:00:52;;;;;;;19.80;14.87;;;17.30;99.90;;;;;;10052248;29;20320;-80
2022/10/23 09:06:07;;;;;;;20.77;15.17;;;17.40;99.90;;;;;;10051903;29;20241;-80
2022/10/23 09:11:23;;;;;;;20.97;14.07;;;17.40;99.90;;;;;;10035473;29;20681;-81
2022/10/23 09:16:29;;;;;;;16.97;13.00;;;17.40;99.90;;;;;;10034278;29;20305;-81
2022/10/23 09:21:31;;;;;;;17.07;13.80;;;17.50;99.90;;;;;;10034159;29;20239;-81
2022/10/23 09:26:34;;;;;;;20.80;15.50;;;17.60;99.90;;;;;;10052297;29;20241;-82
2022/10/23 09:31:51;;;;;;;21.13;15.17;;;17.50;99.90;;;;;;10033272;29;20285;-81
2022/10/23 09:36:57;;;;;;;20.37;13.87;;;17.40;99.90;;;;;;10048493;29;20324;-82
2022/10/23 09:42:04;;;;;;;21.03;15.57;;;17.40;99.90;;;;;;10050728;29;20764;-81
2022/10/23 09:47:06;;;;;;;28.23;18.07;;;17.40;99.90;;;;;;10050490;29;20273;-81
2022/10/23 09:52:11;;;;;;;19.00;13.80;;;17.30;99.90;;;;;;10050380;29;20242;-81
2022/10/23 09:57:26;;;;;;;17.13;13.47;;;17.40;99.90;;;;;;10051610;29;20320;-82
2022/10/23 10:02:29;;;;;;;21.57;16.33;;;;;;;;;;10051750;29;20225;-83
2022/10/23 10:08:14;;;;;;;25.67;16.57;;;17.50;99.90;;;;;;10039657;29;20310;-82
2022/10/23 10:13:31;;;;;;;18.97;14.00;;;17.40;99.90;;;;;;10023989;29;20321;-82
2022/10/23 10:18:57;;;;;;;19.37;15.40;;;17.50;99.90;;;;;;10056134;29;20229;-82
2022/10/23 10:24:24;;;;;;;19.27;15.00;;;17.50;99.90;;;;;;10018150;29;20249;-82
2022/10/23 10:30:12;;;;;;;17.00;13.37;;;17.50;99.90;;;;;;10051571;29;20298;-82
2022/10/23 10:35:47;;;;;;;20.27;14.30;;;17.40;99.90;;;;;;10052014;29;20671;-82
2022/10/23 10:40:57;;;;;;;22.97;15.43;;;17.50;99.90;;;;;;9866000;30;20240;-82
2022/10/23 10:46:04;;;;;;;18.57;15.07;;;17.50;99.90;;;;;;9878693;29;20321;-82
2022/10/23 10:51:29;;;;;;;21.20;14.70;;;17.30;99.90;;;;;;9885602;30;20354;-83
2022/10/23 10:56:37;;;;;;;19.90;14.70;;;17.50;99.90;;;;;;9901362;30;20337;-82
2022/10/23 11:02:06;;;;;;;16.33;12.67;;;17.40;99.90;;;;;;9871998;30;20245;-82
2022/10/23 11:07:14;;;;;;;21.13;16.20;;;17.50;99.90;;;;;;9900397;30;20258;-81
2022/10/23 11:12:22;;;;;;;19.13;14.90;;;17.40;99.90;;;;;;9901868;30;20968;-82
2022/10/23 11:17:34;;;;;;;19.50;14.23;;;17.50;99.90;;;;;;10030487;29;20277;-87
2022/10/23 11:22:59;;;;;;;19.37;14.30;;;17.50;99.90;;;;;;10051591;29;20308;-83
2022/10/23 11:28:02;;;;;;;19.57;14.60;;;17.60;99.90;;;;;;10053774;29;20293;-81
2022/10/23 11:33:18;;;;;;;21.07;15.10;;;17.60;99.90;;;;;;10038403;29;20322;-82
2022/10/23 11:38:27;;;;;;;21.87;13.83;;;17.30;99.90;;;;;;10048273;29;20652;-81
2022/10/23 11:43:49;;;;;;;21.93;15.87;;;17.20;99.90;;;;;;10036522;29;20241;-83
2022/10/23 11:48:54;;;;;;;17.57;13.77;;;17.50;99.90;;;;;;10054375;29;20237;-83
2022/10/23 11:54:23;;;;;;;30.43;16.97;;;17.30;99.90;;;;;;10054730;29;20300;-81
2022/10/23 11:59:32;;;;;;;17.60;13.77;;;17.40;99.90;;;;;;10038701;29;20229;-82
2022/10/23 12:04:46;;;;;;;18.17;14.13;;;17.50;99.90;;;;;;10038782;29;20240;-82
2022/10/23 12:10:01;;;;;;;23.60;17.30;;;17.50;99.90;;;;;;10054609;29;20338;-82
2022/10/23 12:15:17;;;;;;;18.80;15.33;;;16.70;99.90;;;;;;10034527;29;20256;-81
2022/10/23 12:20:29;;;;;;;26.67;19.73;;;16.80;99.90;;;;;;10051098;29;20242;-82
2022/10/23 12:25:43;;;;;;;16.53;13.60;;;16.80;99.90;;;;;;10053959;29;20707;-82
2022/10/23 12:31:04;;;;;;;17.50;14.07;;;16.90;99.90;;;;;;10038637;29;20301;-82
2022/10/23 12:36:15;;;;;;;27.00;17.00;;;17.40;99.90;;;;;;10054662;29;20277;-83
2022/10/23 12:41:26;;;;;;;25.50;20.07;;;17.40;99.90;;;;;;10044009;29;20210;-82
2022/10/23 12:46:45;;;;;;;26.83;19.80;;;17.40;99.90;;;;;;10053467;29;20293;-82
2022/10/23 12:52:15;;;;;;;28.73;19.83;;;17.10;99.90;;;;;;10051910;29;20317;-82
2022/10/23 12:57:24;;;;;;;25.80;19.87;;;16.60;99.90;;;;;;10050804;29;20673;-82
2022/10/23 13:02:31;;;;;;;26.23;18.77;;;16.40;99.90;;;;;;10053379;29;20270;-82
2022/10/23 13:07:38;;;;;;;23.00;20.23;;;16.20;99.90;;;;;;10053268;29;20245;-82
2022/10/23 13:12:46;;;;;;;23.13;17.70;;;16.50;99.90;;;;;;10036564;29;20299;-82
2022/10/23 13:17:54;;;;;;;24.50;18.50;;;16.30;99.90;;;;;;10021782;29;20272;-82
2022/10/23 13:23:11;;;;;;;26.93;18.27;;;16.00;99.90;;;;;;10052451;29;20239;-82
2022/10/23 13:28:27;;;;;;;31.17;20.93;;;15.80;99.90;;;;;;10051340;29;20643;-82
2022/10/23 13:33:42;;;;;;;31.60;19.97;;;16.10;99.90;;;;;;10052756;29;20727;-82
2022/10/23 13:39:00;;;;;;;31.00;24.37;;;16.50;99.90;;;;;;10036027;29;20699;-82
2022/10/23 13:44:03;;;;;;;30.73;21.63;;;16.30;99.90;;;;;;10051441;29;20728;-82
2022/10/23 13:49:06;;;;;;;33.93;23.80;;;16.20;99.90;;;;;;10052503;29;20303;-82
2022/10/23 13:54:14;;;;;;;31.00;20.63;;;15.90;99.90;;;;;;10059719;29;20272;-82
2022/10/23 13:59:17;;;;;;;28.87;19.80;;;16.00;99.90;;;;;;10060582;29;20682;-82
2022/10/23 14:04:19;;;;;;;25.87;19.73;;;16.30;99.90;;;;;;10059744;29;20687;-82
2022/10/23 14:09:22;;;;;;;25.30;19.03;;;16.30;99.90;;;;;;10058662;29;20650;-82
2022/10/23 14:14:24;;;;;;;28.83;20.80;;;16.50;99.90;;;;;;10059258;29;20321;-82
2022/10/23 14:19:27;;;;;;;26.17;20.13;;;16.20;99.90;;;;;;10057660;29;20241;-82
2022/10/23 14:24:29;;;;;;;19.27;16.70;;;16.00;99.90;;;;;;10057542;29;20308;-82
2022/10/23 14:29:32;;;;;;;30.47;19.73;;;16.00;99.90;;;;;;10057759;29;20237;-82
2022/10/23 14:34:34;;;;;;;27.83;20.23;;;16.30;99.90;;;;;;10057035;29;20846;-82
2022/10/23 14:39:37;;;;;;;33.77;21.50;;;15.90;99.90;;;;;;10058789;29;20704;-82
2022/10/23 14:44:39;;;;;;;29.23;21.17;;;15.60;99.90;;;;;;10055555;29;20302;-82
2022/10/23 14:49:44;;;;;;;30.43;20.60;;;15.40;99.90;;;;;;10039899;29;20658;-82
2022/10/23 14:54:46;;;;;;;38.33;25.97;;;15.00;99.90;;;;;;10057410;29;20311;-82
2022/10/23 14:59:48;;;;;;;41.57;28.67;;;14.60;99.90;;;;;;10056324;29;20290;-82
2022/10/23 15:04:51;;;;;;;49.37;36.10;;;14.30;99.90;;;;;;10056934;29;20316;-82
2022/10/23 15:09:54;;;;;;;40.27;28.90;;;14.10;99.90;;;;;;10057560;29;20776;-82
2022/10/23 15:14:56;;;;;;;37.57;25.53;;;14.00;99.90;;;;;;10040991;29;20712;-82
2022/10/23 15:19:59;;;;;;;31.07;23.50;;;14.10;99.90;;;;;;10025992;29;20257;-82
2022/10/23 15:25:02;;;;;;;38.00;27.23;;;14.80;99.90;;;;;;10057005;29;20305;-82
2022/10/23 15:30:05;;;;;;;43.27;28.40;;;14.80;99.90;;;;;;10039463;29;20313;-82
2022/10/23 15:35:07;;;;;;;39.30;25.73;;;14.30;99.90;;;;;;10039160;29;20731;-82
2022/10/23 15:40:10;;;;;;;43.00;29.60;;;14.40;99.90;;;;;;10055882;29;20233;-82
2022/10/23 15:45:13;;;;;;;40.07;25.70;;;13.80;99.90;;;;;;10039622;29;20262;-82
2022/10/23 15:50:16;;;;;;;38.50;26.57;;;13.70;99.90;;;;;;10055717;29;20286;-82
2022/10/23 15:55:19;;;;;;;44.53;32.03;;;13.70;99.90;;;;;;10053933;29;20291;-82
2022/10/23 16:00:21;;;;;;;48.00;30.73;;;13.40;99.90;;;;;;10054120;29;20229;-82
2022/10/23 16:05:24;;;;;;;36.83;26.10;;;13.40;99.90;;;;;;10032891;29;20320;-87
2022/10/23 16:10:27;;;;;;;36.40;24.77;;;14.70;99.90;;;;;;10038198;29;20297;-83
2022/10/23 16:15:29;;;;;;;36.03;24.10;;;15.30;99.90;;;;;;10053524;29;20289;-83
2022/10/23 16:20:32;;;;;;;32.17;23.77;;;15.40;99.90;;;;;;10036728;29;20245;-84
2022/10/23 16:25:35;;;;;;;39.80;28.17;;;16.20;99.90;;;;;;10036537;29;20242;-83
2022/10/23 16:30:42;;;;;;;36.70;27.10;;;15.90;99.90;;;;;;10037710;29;20226;-83
2022/10/23 16:35:44;;;;;;;42.10;31.07;;;15.40;99.90;;;;;;10037379;29;20726;-82
2022/10/23 16:40:52;;;;;;;42.13;28.80;;;15.70;99.90;;;;;;10035624;29;20271;-84
2022/10/23 16:46:20;;;;;;;49.30;33.77;;;15.80;99.90;;;;;;10015129;29;20250;-84
2022/10/23 16:51:25;;;;;;;43.47;31.07;;;15.30;99.90;;;;;;10052972;29;20245;-84
2022/10/23 16:56:28;;;;;;;47.87;33.43;;;15.40;99.90;;;;;;10036300;29;20267;-84
2022/10/23 17:01:32;;;;;;;43.03;31.23;;;15.00;99.90;;;;;;10052982;29;20237;-84
2022/10/23 17:06:35;;;;;;;48.57;33.40;;;14.90;99.90;;;;;;10053240;29;20247;-83
2022/10/23 17:11:39;;;;;;;41.47;30.53;;;16.30;99.90;;;;;;10053192;29;20290;-83
2022/10/23 17:16:44;;;;;;;40.60;29.93;;;16.60;99.90;;;;;;10052965;29;20319;-84
2022/10/23 17:21:47;;;;;;;43.87;30.67;;;15.30;99.90;;;;;;10051504;29;20297;-86
2022/10/23 17:26:50;;;;;;;38.40;28.10;;;15.70;99.90;;;;;;10050045;29;20255;-85
2022/10/23 17:31:52;;;;;;;41.97;29.37;;;16.30;99.90;;;;;;9370130;29;10000656;-84
2022/10/23 17:36:55;;;;;;;39.03;27.53;;;16.60;99.90;;;;;;10049655;29;20261;-84
2022/10/23 17:41:58;;;;;;;35.97;26.97;;;16.20;99.90;;;;;;10048170;29;20610;-83
2022/10/23 17:47:00;;;;;;;37.80;27.37;;;16.00;99.90;;;;;;10048435;29;20253;-85
2022/10/23 17:52:03;;;;;;;40.17;27.90;;;16.60;99.90;;;;;;10043401;29;20241;-84
2022/10/23 17:57:05;;;;;;;38.87;27.33;;;16.40;99.90;;;;;;10048375;29;20770;-84
2022/10/23 18:02:11;;;;;;;37.60;27.17;;;15.20;99.90;;;;;;10032277;29;20237;-84
2022/10/23 18:07:14;;;;;;;36.03;27.77;;;15.30;99.90;;;;;;10032605;29;20305;-84
2022/10/23 18:12:17;;;;;;;42.53;29.03;;;15.30;99.90;;;;;;10048654;29;20240;-84
2022/10/23 18:17:19;;;;;;;35.03;27.13;;;15.00;99.90;;;;;;10047957;29;20269;-83
2022/10/23 18:22:21;;;;;;;31.23;25.20;;;15.70;99.90;;;;;;10033316;29;20309;-83
2022/10/23 18:27:24;;;;;;;38.10;26.20;;;16.60;99.90;;;;;;10047031;29;20241;-83
2022/10/23 18:32:28;;;;;;;37.43;26.00;;;16.40;99.90;;;;;;10048559;29;20241;-83
2022/10/23 18:37:31;;;;;;;35.30;26.07;;;;;;;;;;10049907;29;20257;-83
2022/10/23 18:42:38;;;;;;;39.27;25.77;;;16.70;99.90;;;;;;10040623;29;20703;-83
2022/10/23 18:47:41;;;;;;;45.50;28.70;;;16.30;99.90;;;;;;10056892;29;20244;-82
2022/10/23 18:52:44;;;;;;;47.83;29.53;;;16.20;99.90;;;;;;10056217;29;20244;-82
2022/10/23 18:57:47;;;;;;;44.53;28.40;;;13.40;99.90;;;;;;10039547;29;20273;-83
2022/10/23 19:02:49;;;;;;;38.80;26.60;;;12.50;99.90;;;;;;10052012;29;20245;-83
2022/10/23 19:07:54;;;;;;;41.30;25.33;;;11.90;99.90;;;;;;10056407;29;20298;-83
2022/10/23 19:12:56;;;;;;;43.63;27.37;;;11.70;99.90;;;;;;10056879;29;20244;-83
2022/10/23 19:17:59;;;;;;;38.30;23.77;;;11.60;99.90;;;;;;10058897;29;20265;-84
2022/10/23 19:23:04;;;;;;;35.23;23.77;;;;;;;;;;10055370;29;20670;-84
2022/10/23 19:28:08;;;;;;;40.80;25.87;;;11.50;99.90;;;;;;10039580;29;20250;-82
2022/10/23 19:33:10;;;;;;;72.30;42.70;;;11.50;99.90;;;;;;10034749;29;20614;-86
2022/10/23 19:38:12;;;;;;;65.77;35.67;;;11.80;99.90;;;;;;10052224;29;20251;-83
2022/10/23 19:43:15;;;;;;;53.83;29.23;;;11.40;99.90;;;;;;10054991;29;20277;-83
2022/10/23 19:48:17;;;;;;;59.93;30.73;;;11.30;99.90;;;;;;10054826;29;20289;-84
2022/10/23 19:53:20;;;;;;;48.60;28.50;;;11.30;99.90;;;;;;10060702;29;20274;-83
2022/10/23 19:58:22;;;;;;;38.63;26.83;;;11.30;99.90;;;;;;10048121;29;20258;-83
2022/10/23 20:03:25;;;;;;;42.17;26.57;;;11.40;99.90;;;;;;10074623;29;20294;-84
2022/10/23 20:08:27;;;;;;;41.03;26.50;;;11.30;99.90;;;;;;10072653;29;20242;-84
2022/10/23 20:13:36;;;;;;;33.97;23.03;;;11.20;99.90;;;;;;10050774;29;20295;-83
2022/10/23 20:18:38;;;;;;;38.13;24.77;;;11.10;99.90;;;;;;10053593;29;20273;-86
2022/10/23 20:23:41;;;;;;;38.43;24.37;;;11.10;99.90;;;;;;10021391;29;20597;-84
2022/10/23 20:28:45;;;;;;;50.00;29.13;;;11.10;99.90;;;;;;10029585;29;20254;-83
2022/10/23 20:33:48;;;;;;;46.37;29.23;;;11.00;99.90;;;;;;10053848;29;20266;-83
2022/10/23 20:38:51;;;;;;;50.57;28.47;;;11.10;99.90;;;;;;10034926;29;20269;-83
2022/10/23 20:43:55;;;;;;;45.03;28.20;;;11.10;99.90;;;;;;10053980;29;20301;-83
2022/10/23 20:48:57;;;;;;;42.13;26.53;;;11.10;99.90;;;;;;10038676;29;20243;-83
2022/10/23 20:54:00;;;;;;;41.20;25.47;;;11.20;99.90;;;;;;10040402;29;20277;-83
2022/10/23 20:59:09;;;;;;;44.63;27.30;;;11.20;99.90;;;;;;10052598;29;20306;-83
2022/10/23 21:04:13;;;;;;;37.30;25.73;;;11.20;99.90;;;;;;10054032;29;20758;-83
2022/10/23 21:09:15;;;;;;;46.33;28.33;;;11.20;99.90;;;;;;10035943;29;20950;-84
2022/10/23 21:14:18;;;;;;;44.77;27.33;;;11.20;99.90;;;;;;10050737;29;20235;-84
2022/10/23 21:19:20;;;;;;;59.87;30.77;;;11.10;99.90;;;;;;10053425;29;20257;-84
2022/10/23 21:24:23;;;;;;;52.43;30.10;;;11.10;99.90;;;;;;10025092;29;20286;-83
2022/10/23 21:29:25;;;;;;;66.60;33.20;;;11.10;99.90;;;;;;10022028;29;20233;-84
2022/10/23 21:34:29;;;;;;;67.10;36.30;;;11.10;99.90;;;;;;10033501;29;20653;-82
2022/10/23 21:39:31;;;;;;;46.00;26.90;;;11.00;99.90;;;;;;10036469;29;20291;-82
2022/10/23 21:44:34;;;;;;;39.20;25.47;;;;;;;;;;10034946;29;20233;-82
2022/10/23 21:49:37;;;;;;;39.77;25.63;;;10.80;99.90;;;;;;10016833;29;20692;-82
2022/10/23 21:54:39;;;;;;;38.50;26.07;;;10.70;99.90;;;;;;9377151;29;10000800;-82
2022/10/23 21:59:42;;;;;;;43.80;26.97;;;10.50;99.90;;;;;;10032594;29;20249;-82
2022/10/23 22:04:45;;;;;;;45.23;29.10;;;10.50;99.90;;;;;;10017679;29;20290;-83
2022/10/23 22:09:47;;;;;;;38.93;27.37;;;10.40;99.90;;;;;;10037957;29;20241;-82
2022/10/23 22:14:50;;;;;;;43.00;26.77;;;10.40;99.90;;;;;;10055344;29;20285;-82
2022/10/23 22:19:52;;;;;;;38.23;27.53;;;10.40;99.90;;;;;;10038411;29;20305;-82
2022/10/23 22:24:55;;;;;;;42.17;25.10;;;10.40;99.90;;;;;;10027489;29;20701;-82
2022/10/23 22:29:57;;;;;;;42.93;27.27;;;10.30;99.90;;;;;;10056163;29;20233;-82
2022/10/23 22:34:59;;;;;;;48.53;27.37;;;10.40;99.90;;;;;;10056644;29;20233;-82
2022/10/23 22:40:02;;;;;;;42.57;27.53;;;10.50;99.90;;;;;;10056746;29;20681;-83
2022/10/23 22:45:05;;;;;;;48.70;28.30;;;10.40;99.90;;;;;;10057124;29;20701;-83
2022/10/23 22:50:08;;;;;;;45.67;28.70;;;10.40;99.90;;;;;;10057936;29;20266;-82
2022/10/23 22:55:10;;;;;;;46.80;28.47;;;10.60;99.90;;;;;;10029009;29;20313;-82
2022/10/23 23:00:13;;;;;;;47.63;27.73;;;10.50;99.90;;;;;;10057553;29;20314;-83
2022/10/23 23:05:16;;;;;;;45.07;27.17;;;10.50;99.90;;;;;;10050679;29;20663;-82
2022/10/23 23:10:18;;;;;;;43.80;26.57;;;10.50;99.90;;;;;;10048221;29;20241;-81
2022/10/23 23:15:21;;;;;;;38.60;26.67;;;10.50;99.90;;;;;;10040944;29;20258;-81
2022/10/23 23:20:23;;;;;;;46.83;28.67;;;10.40;99.90;;;;;;10057368;29;20283;-82
2022/10/23 23:25:25;;;;;;;42.47;27.37;;;10.50;99.90;;;;;;10028766;29;20697;-82
2022/10/23 23:30:28;;;;;;;42.67;26.80;;;10.60;99.90;;;;;;10057122;29;20281;-82
2022/10/23 23:35:30;;;;;;;48.47;26.70;;;10.60;99.90;;;;;;10039866;29;20636;-82
2022/10/23 23:40:33;;;;;;;44.73;25.77;;;10.40;99.90;;;;;;10055670;29;20257;-82
2022/10/23 23:45:36;;;;;;;41.83;25.40;;;10.20;99.90;;;;;;10056710;29;20237;-82
2022/10/23 23:50:38;;;;;;;40.73;25.10;;;10.10;99.90;;;;;;10055449;29;20298;-82
2022/10/23 23:55:41;;;;;;;34.57;23.10;;;10.10;99.90;;;;;;10056211;29;20713;-82
